createdAt,value
2023-01-30T00:03:23.915Z,17.77
2023-01-30T00:08:26.044Z,19.63
2023-01-30T00:13:27.626Z,18.17
2023-01-30T00:18:29.744Z,19.77
2023-01-30T00:23:32.924Z,18.95
2023-01-30T00:28:35.537Z,19.00
2023-01-30T00:33:39.620Z,19.27
2023-01-30T00:38:41.479Z,18.50
2023-01-30T00:44:01.711Z,20.40
2023-01-30T00:49:03.386Z,19.73
2023-01-30T00:54:05.109Z,19.47
2023-01-30T00:59:06.925Z,20.43
2023-01-30T01:04:10.406Z,19.03
2023-01-30T01:09:12.168Z,20.27
2023-01-30T01:14:15.344Z,19.02
2023-01-30T01:19:17.416Z,19.63
2023-01-30T01:24:19.150Z,18.67
2023-01-30T01:29:20.948Z,19.00
2023-01-30T01:34:22.688Z,19.65
2023-01-30T01:39:24.350Z,19.97
2023-01-30T01:44:26.041Z,18.70
2023-01-30T01:49:35.233Z,18.77
2023-01-30T01:54:45.239Z,17.92
2023-01-30T01:59:54.771Z,17.73
2023-01-30T02:05:02.955Z,19.15
2023-01-30T02:10:06.704Z,18.15
2023-01-30T02:15:08.936Z,18.23
2023-01-30T02:20:32.312Z,19.10
2023-01-30T02:26:05.204Z,18.23
2023-01-30T02:31:25.979Z,17.88
2023-01-30T02:36:28.204Z,17.13
2023-01-30T02:41:47.342Z,17.58
2023-01-30T02:47:07.880Z,17.70
2023-01-30T02:52:12.547Z,17.92
2023-01-30T02:57:23.259Z,18.15
2023-01-30T03:03:07.446Z,16.77
2023-01-30T03:08:54.038Z,16.30
2023-01-30T03:14:06.275Z,18.35
2023-01-30T03:19:13.734Z,18.02
2023-01-30T03:24:16.742Z,17.30
2023-01-30T03:29:18.487Z,19.45
2023-01-30T03:34:20.261Z,18.50
2023-01-30T03:39:24.351Z,19.47
2023-01-30T03:44:26.862Z,19.80
2023-01-30T03:49:28.768Z,18.02
2023-01-30T03:54:32.115Z,18.63
2023-01-30T03:59:34.165Z,17.33
2023-01-30T04:04:41.316Z,18.98
2023-01-30T04:09:45.347Z,18.80
2023-01-30T04:20:01.278Z,18.85
2023-01-30T04:25:05.575Z,18.08
2023-01-30T04:30:07.869Z,19.35
2023-01-30T04:35:10.395Z,18.65
2023-01-30T04:40:13.089Z,19.13
2023-01-30T04:45:15.120Z,20.92
2023-01-30T04:50:18.154Z,19.20
2023-01-30T04:55:20.183Z,18.95
2023-01-30T05:00:22.124Z,19.52
2023-01-30T05:05:29.343Z,19.27
2023-01-30T05:10:31.365Z,20.00
2023-01-30T05:15:33.842Z,19.33
2023-01-30T05:20:38.007Z,18.15
2023-01-30T05:25:39.711Z,16.52
2023-01-30T05:30:41.613Z,20.30
2023-01-30T05:35:47.797Z,19.88
2023-01-30T05:41:04.024Z,18.73
2023-01-30T05:46:06.714Z,18.90
2023-01-30T05:56:18.038Z,18.42
2023-01-30T06:01:20.109Z,16.75
2023-01-30T06:06:22.777Z,19.17
2023-01-30T06:11:25.076Z,18.40
2023-01-30T06:16:26.899Z,18.58
2023-01-30T06:21:28.572Z,17.53
2023-01-30T06:26:30.470Z,17.17
2023-01-30T06:31:32.135Z,18.90
2023-01-30T06:36:33.928Z,18.73
2023-01-30T06:41:35.659Z,16.73
2023-01-30T06:46:37.294Z,17.53
2023-01-30T06:51:39.081Z,18.50
2023-01-30T06:56:40.994Z,19.80
2023-01-30T07:01:42.742Z,19.53
2023-01-30T07:06:44.463Z,20.63
2023-01-30T07:11:47.690Z,20.10
2023-01-30T07:16:49.346Z,19.17
2023-01-30T07:21:51.157Z,18.80
2023-01-30T07:26:52.796Z,19.33
2023-01-30T07:31:54.574Z,16.70
2023-01-30T07:36:56.247Z,19.23
2023-01-30T07:42:00.847Z,18.97
2023-01-30T07:47:02.562Z,15.98
2023-01-30T07:52:04.236Z,18.80
2023-01-30T07:57:06.034Z,18.70
2023-01-30T08:02:10.148Z,18.93
2023-01-30T08:07:11.946Z,18.42
2023-01-30T08:12:13.657Z,17.40
2023-01-30T08:17:15.252Z,18.00
2023-01-30T08:22:17.364Z,17.80
2023-01-30T08:27:19.049Z,16.75
2023-01-30T08:32:20.727Z,15.23
2023-01-30T08:37:22.359Z,12.03
2023-01-30T08:42:24.030Z,15.77
2023-01-30T08:47:25.776Z,14.30
2023-01-30T08:52:27.465Z,15.87
2023-01-30T08:57:29.128Z,16.13
2023-01-30T09:02:31.112Z,14.80
2023-01-30T09:07:33.327Z,11.65
2023-01-30T09:12:35.212Z,12.52
2023-01-30T09:17:38.217Z,13.20
2023-01-30T09:22:39.951Z,13.93
2023-01-30T09:27:44.448Z,9.73
2023-01-30T09:32:46.150Z,13.05
2023-01-30T09:37:50.473Z,11.63
2023-01-30T09:42:59.979Z,12.15
2023-01-30T09:48:20.784Z,10.23
2023-01-30T09:53:59.483Z,11.15
2023-01-30T09:59:04.406Z,11.02
2023-01-30T10:04:14.730Z,11.52
2023-01-30T10:09:46.835Z,9.82
2023-01-30T10:15:14.680Z,9.50
2023-01-30T10:20:34.704Z,9.82
2023-01-30T10:25:47.152Z,10.90
2023-01-30T10:30:52.739Z,9.77
2023-01-30T10:36:06.541Z,9.27
2023-01-30T10:41:31.959Z,11.07
2023-01-30T10:46:52.387Z,9.27
2023-01-30T10:52:00.113Z,9.40
2023-01-30T10:57:11.925Z,6.55
2023-01-30T11:02:16.579Z,9.20
2023-01-30T11:07:18.928Z,7.53
2023-01-30T11:12:20.678Z,8.63
2023-01-30T11:17:32.786Z,8.75
2023-01-30T11:22:36.746Z,7.85
2023-01-30T11:27:42.481Z,8.43
2023-01-30T11:32:47.651Z,7.28
2023-01-30T11:37:53.300Z,6.30
2023-01-30T11:43:10.440Z,5.75
2023-01-30T11:48:34.104Z,5.30
2023-01-30T11:53:56.174Z,4.72
2023-01-30T11:59:28.106Z,5.05
2023-01-30T12:04:30.017Z,5.60
2023-01-30T12:09:35.679Z,5.83
2023-01-30T12:14:43.465Z,5.32
2023-01-30T12:19:51.865Z,5.30
2023-01-30T12:25:25.160Z,5.45
2023-01-30T12:35:54.459Z,5.75
2023-01-30T12:41:31.487Z,5.88
2023-01-30T12:46:58.814Z,5.25
2023-01-30T12:52:31.928Z,6.22
2023-01-30T12:58:00.526Z,6.38
2023-01-30T13:03:23.741Z,7.93
2023-01-30T13:08:35.455Z,7.05
2023-01-30T13:13:46.053Z,8.15
2023-01-30T13:19:12.660Z,6.97
2023-01-30T13:24:43.450Z,8.05
2023-01-30T13:29:47.748Z,8.18
2023-01-30T13:34:50.677Z,8.10
2023-01-30T13:40:17.212Z,8.63
2023-01-30T13:45:26.656Z,7.72
2023-01-30T13:50:55.130Z,7.97
2023-01-30T13:56:40.686Z,10.68
2023-01-30T14:02:02.059Z,10.55
2023-01-30T14:07:09.637Z,11.68
2023-01-30T14:12:24.805Z,10.63
2023-01-30T14:17:26.915Z,10.77
2023-01-30T14:22:35.349Z,12.73
2023-01-30T14:27:37.028Z,11.25
2023-01-30T14:32:55.775Z,11.95
2023-01-30T14:38:06.641Z,13.45
2023-01-30T14:43:20.370Z,13.18
2023-01-30T14:48:37.602Z,13.00
2023-01-30T14:53:59.168Z,12.48
2023-01-30T14:59:03.983Z,14.48
2023-01-30T15:04:05.781Z,13.50
2023-01-30T15:09:09.450Z,12.17
2023-01-30T15:14:20.293Z,12.73
2023-01-30T15:20:02.441Z,13.25
2023-01-30T15:25:30.806Z,14.50
2023-01-30T15:30:39.662Z,14.65
2023-01-30T15:35:42.912Z,15.07
2023-01-30T15:40:45.653Z,15.65
2023-01-30T15:46:11.789Z,15.40
2023-01-30T15:51:16.847Z,15.15
2023-01-30T15:56:28.852Z,16.02
2023-01-30T16:01:31.054Z,11.97
2023-01-30T16:06:37.493Z,12.23
2023-01-30T16:11:42.079Z,11.40
2023-01-30T16:16:46.708Z,10.18
2023-01-30T16:21:48.771Z,10.57
2023-01-30T16:26:55.227Z,9.07
2023-01-30T16:31:57.324Z,8.63
2023-01-30T16:37:07.602Z,8.60
2023-01-30T16:42:25.792Z,10.73
2023-01-30T16:47:31.433Z,9.48
2023-01-30T16:52:44.034Z,10.18
2023-01-30T16:57:53.105Z,10.32
2023-01-30T17:02:58.162Z,8.15
2023-01-30T17:08:00.541Z,9.50
2023-01-30T17:13:02.449Z,10.23
2023-01-30T17:18:04.467Z,9.13
2023-01-30T17:23:09.314Z,8.25
2023-01-30T17:28:18.187Z,8.38
2023-01-30T17:33:20.120Z,9.60
2023-01-30T17:38:21.866Z,10.37
2023-01-30T17:43:24.206Z,10.98
2023-01-30T17:48:25.825Z,8.27
2023-01-30T17:53:27.484Z,8.63
2023-01-30T17:58:29.455Z,9.60
2023-01-30T18:03:31.268Z,9.67
2023-01-30T18:08:32.952Z,10.43
2023-01-30T18:13:35.669Z,10.07
2023-01-30T18:18:38.002Z,10.32
2023-01-30T18:23:39.773Z,7.53
2023-01-30T18:28:41.567Z,8.90
2023-01-30T18:33:45.437Z,7.17
2023-01-30T18:38:47.851Z,8.40
2023-01-30T18:44:15.732Z,8.88
2023-01-30T18:49:17.417Z,8.45
2023-01-30T18:54:19.074Z,7.00
2023-01-30T19:04:23.549Z,6.88
2023-01-30T19:09:26.696Z,6.85
2023-01-30T19:14:28.488Z,7.32
2023-01-30T19:19:30.150Z,7.10
2023-01-30T19:24:31.847Z,7.55
2023-01-30T19:29:33.540Z,7.13
2023-01-30T19:34:35.238Z,7.22
2023-01-30T19:39:36.961Z,7.43
2023-01-30T19:44:40.880Z,7.25
2023-01-30T19:49:42.627Z,6.95
2023-01-30T19:54:46.884Z,6.90
2023-01-30T19:59:48.593Z,5.95
2023-01-30T20:04:50.246Z,7.25
2023-01-30T20:09:51.987Z,7.30
2023-01-30T20:14:53.674Z,7.07
2023-01-30T20:19:55.376Z,6.63
2023-01-30T20:24:57.104Z,6.18
2023-01-30T20:29:58.901Z,7.03
2023-01-30T20:35:00.749Z,6.33
2023-01-30T20:40:02.451Z,6.25
2023-01-30T20:45:04.672Z,6.25
2023-01-30T20:50:06.608Z,6.15
2023-01-30T20:55:08.845Z,6.37
2023-01-30T21:00:12.541Z,6.10
2023-01-30T21:05:14.292Z,5.57
2023-01-30T21:10:16.332Z,6.37
2023-01-30T21:15:18.230Z,5.90
2023-01-30T21:20:20.220Z,5.23
2023-01-30T21:25:22.151Z,5.90
2023-01-30T21:30:23.818Z,6.13
2023-01-30T21:35:25.424Z,4.80
2023-01-30T21:40:45.500Z,5.90
2023-01-30T21:45:47.215Z,4.68
2023-01-30T21:50:49.200Z,5.18
2023-01-30T22:00:54.181Z,5.70
2023-01-30T22:05:55.967Z,5.63
2023-01-30T22:11:13.433Z,5.20
2023-01-30T22:16:20.860Z,5.35
2023-01-30T22:21:24.620Z,5.30
2023-01-30T22:26:26.860Z,6.65
2023-01-30T22:31:34.284Z,5.95
2023-01-30T22:36:36.186Z,5.97
2023-01-30T22:41:38.603Z,6.17
2023-01-30T22:46:41.272Z,5.75
2023-01-30T22:56:48.809Z,5.80
2023-01-30T23:01:51.215Z,5.80
2023-01-30T23:06:52.996Z,6.32
2023-01-30T23:12:16.270Z,5.72
2023-01-30T23:17:36.930Z,5.78
2023-01-30T23:22:38.960Z,5.68
2023-01-30T23:27:40.676Z,5.67
2023-01-30T23:32:42.355Z,6.10
2023-01-30T23:38:02.777Z,5.97
2023-01-30T23:43:04.458Z,5.72
2023-01-30T23:48:08.468Z,4.90
2023-01-30T23:53:10.686Z,5.82
2023-01-30T23:58:12.308Z,5.60
